Time;durP1;ratioP1;P1;durP2;ratioP2;P2;SDS_P1;SDS_P2;PMS_P1;PMS_P2;Temp;Humidity;BMP_temperature;BMP_pressure;BME280_temperature;BME280_humidity;BME280_pressure;Samples;Min_cycle;Max_cycle;Signal;HPM_P1;HPM_P2
2022/06/27 00:01:52;;;;;;;3.87;3.50;;;19.80;99.90;;;20.28;69.02;95213.88;5120895;28;20477;-56
2022/06/27 00:04:20;;;;;;;3.90;3.60;;;19.80;99.90;;;20.26;68.82;95214.06;5123024;28;20447;-56
2022/06/27 00:06:47;;;;;;;3.80;3.50;;;19.80;99.90;;;20.24;68.99;95208.91;5122308;28;20852;-55
2022/06/27 00:09:14;;;;;;;6.60;4.63;;;19.80;99.90;;;20.20;68.67;95209.50;5120410;28;21205;-55
2022/06/27 00:11:42;;;;;;;6.10;3.87;;;19.80;99.90;;;20.12;68.57;95204.28;5123228;28;20496;-53
2022/06/27 00:14:09;;;;;;;5.10;3.80;;;19.70;99.90;;;20.03;69.41;95204.44;5119464;28;20457;-53
2022/06/27 00:16:38;;;;;;;8.90;4.20;;;19.70;99.90;;;19.98;69.64;95201.47;5124739;28;20472;-54
2022/06/27 00:19:05;;;;;;;5.37;4.87;;;19.60;99.90;;;19.97;69.96;95199.00;5119624;28;20475;-54
2022/06/27 00:21:32;;;;;;;6.93;6.30;;;19.60;99.90;;;19.95;69.24;95199.19;5122424;28;20476;-56
2022/06/27 00:24:00;;;;;;;12.67;8.40;;;19.50;99.90;;;19.92;68.89;95210.25;5119161;27;20457;-55
2022/06/27 00:26:27;;;;;;;8.23;6.70;;;19.50;99.90;;;19.91;69.02;95205.09;5121713;27;20469;-53
2022/06/27 00:28:54;;;;;;;10.03;6.47;;;19.50;99.90;;;19.86;68.71;95208.34;5129820;27;20459;-55
2022/06/27 00:31:21;;;;;;;8.83;5.40;;;19.50;99.90;;;19.82;68.75;95210.56;5120459;27;21148;-55
2022/06/27 00:33:50;;;;;;;6.03;4.60;;;19.40;99.90;;;19.79;69.13;95218.13;5126950;27;20468;-56
2022/06/27 00:36:17;;;;;;;8.03;4.07;;;19.40;99.90;;;19.76;68.44;95213.97;5124127;27;20806;-57
2022/06/27 00:38:45;;;;;;;4.70;4.17;;;19.30;99.90;;;19.73;68.86;95214.34;5121632;27;20713;-55
2022/06/27 00:41:12;;;;;;;6.63;4.60;;;19.30;99.90;;;19.68;69.11;95217.56;5127856;27;20484;-53
2022/06/27 00:43:42;;;;;;;4.70;4.30;;;19.30;99.90;;;19.66;68.79;95216.94;5128601;27;20451;-55
2022/06/27 00:46:10;;;;;;;6.20;4.43;;;19.30;99.90;;;19.63;69.02;95211.97;5119357;27;20476;-56
2022/06/27 00:48:37;;;;;;;7.10;4.43;;;19.30;99.90;;;19.61;68.81;95206.00;5122588;27;20532;-54
2022/06/27 00:51:06;;;;;;;5.57;4.97;;;19.20;99.90;;;19.58;69.41;95201.03;5128455;27;20524;-55
2022/06/27 00:53:33;;;;;;;7.43;5.23;;;19.20;99.90;;;19.53;69.25;95203.44;5123746;27;20538;-56
2022/06/27 00:56:01;;;;;;;5.47;4.97;;;19.20;99.90;;;19.52;69.56;95196.47;5120472;27;20472;-52
2022/06/27 00:58:28;;;;;;;8.20;5.63;;;19.10;99.90;;;19.45;69.57;95195.53;5121754;27;20456;-58
2022/06/27 01:00:55;;;;;;;7.67;5.23;;;19.10;99.90;;;19.41;69.53;95186.25;5125318;27;20484;-55
2022/06/27 01:03:23;;;;;;;6.33;5.70;;;19.10;99.90;;;19.39;69.72;95188.28;5127690;27;20521;-56
2022/06/27 01:05:52;;;;;;;5.47;4.97;;;19.00;99.90;;;19.36;69.89;95181.47;5127399;27;20483;-54
2022/06/27 01:08:21;;;;;;;9.77;5.10;;;18.90;99.90;;;19.34;70.28;95189.66;5125960;27;20575;-55
2022/06/27 01:10:48;;;;;;;13.70;5.43;;;18.90;99.90;;;19.33;70.46;95188.03;5125433;27;20484;-56
2022/06/27 01:13:16;;;;;;;7.90;4.90;;;19.00;99.90;;;19.33;70.63;95189.84;5123881;27;20488;-53
2022/06/27 01:15:43;;;;;;;5.33;4.50;;;18.90;99.90;;;19.31;70.54;95184.69;5124116;27;20502;-53
2022/06/27 01:18:11;;;;;;;5.67;5.13;;;18.90;99.90;;;19.29;70.78;95180.59;5120703;27;20896;-55
2022/06/27 01:20:38;;;;;;;5.70;5.13;;;18.90;99.90;;;19.25;70.34;95176.63;5119903;27;20473;-55
2022/06/27 01:23:07;;;;;;;7.93;5.63;;;18.90;99.90;;;19.24;70.76;95180.28;5123434;27;20464;-54
2022/06/27 01:25:35;;;;;;;6.47;5.77;;;18.90;99.90;;;19.24;71.21;95182.97;5121965;27;20483;-54
2022/06/27 01:28:02;;;;;;;6.33;5.73;;;18.80;99.90;;;19.23;71.30;95186.66;5123946;27;20981;-56
2022/06/27 01:30:29;;;;;;;11.30;6.27;;;18.90;99.90;;;19.23;71.58;95187.47;5122907;27;20814;-54
2022/06/27 01:32:57;;;;;;;6.40;5.70;;;18.80;99.90;;;19.24;71.73;95186.47;5123891;27;20487;-53
2022/06/27 01:35:24;;;;;;;6.10;5.07;;;18.80;99.90;;;19.24;71.03;95186.47;5121535;27;20468;-55
2022/06/27 01:37:51;;;;;;;5.77;5.23;;;18.80;99.90;;;19.26;71.51;95195.09;5121752;27;20460;-55
2022/06/27 01:40:20;;;;;;;12.20;5.73;;;18.90;99.90;;;19.27;71.34;95201.25;5123187;27;20483;-55
2022/06/27 01:42:47;;;;;;;17.23;5.40;;;18.90;99.90;;;19.26;71.72;95197.78;5121256;27;20973;-56
2022/06/27 01:45:15;;;;;;;10.83;4.40;;;18.80;99.90;;;19.28;71.77;95197.59;5128234;27;20488;-54
2022/06/27 01:47:42;;;;;;;10.63;4.80;;;18.90;99.90;;;19.27;71.33;95195.94;5120896;27;20455;-52
2022/06/27 01:50:10;;;;;;;5.73;5.10;;;18.90;99.90;;;19.27;71.25;95210.09;5120325;27;20480;-57
2022/06/27 01:52:38;;;;;;;5.43;5.03;;;18.80;99.90;;;19.26;71.46;95208.44;5118641;27;20496;-56
2022/06/27 01:55:06;;;;;;;5.60;4.80;;;18.90;99.90;;;19.27;71.73;95201.25;5123441;27;20875;-53
2022/06/27 01:57:34;;;;;;;10.10;6.00;;;18.80;99.90;;;19.26;71.99;95203.09;5122995;27;20479;-55
2022/06/27 02:00:02;;;;;;;7.50;4.47;;;18.80;99.90;;;19.26;71.55;95213.78;5121611;27;20468;-55
2022/06/27 02:02:29;;;;;;;8.27;4.63;;;18.90;99.90;;;19.25;71.38;95205.97;5121388;27;20869;-54
2022/06/27 02:04:56;;;;;;;4.90;4.37;;;18.80;99.90;;;19.20;71.41;95209.19;5119749;27;20476;-54
2022/06/27 02:07:24;;;;;;;6.53;5.83;;;18.80;99.90;;;19.18;71.43;95219.22;5121199;27;20818;-56
2022/06/27 02:09:51;;;;;;;8.50;5.10;;;18.80;99.90;;;19.15;71.51;95219.59;5113537;27;20452;-55
2022/06/27 02:12:22;;;;;;;5.30;4.90;;;18.80;99.90;;;19.12;71.97;95220.78;5124443;27;20496;-55
2022/06/27 02:14:53;;;;;;;5.87;5.47;;;18.70;99.90;;;19.08;71.64;95221.31;5127332;27;20508;-53
2022/06/27 02:17:21;;;;;;;9.67;5.60;;;18.70;99.90;;;19.04;72.11;95228.88;5127391;27;20452;-55
2022/06/27 02:19:48;;;;;;;8.47;6.50;;;18.70;99.90;;;18.99;71.63;95228.56;5122043;27;20467;-55
2022/06/27 02:22:15;;;;;;;7.07;6.37;;;18.60;99.90;;;18.94;71.99;95223.78;5120879;27;20973;-55
2022/06/27 02:24:43;;;;;;;7.57;5.03;;;18.60;99.90;;;18.90;71.55;95227.00;5125562;27;20467;-55
2022/06/27 02:27:10;;;;;;;10.13;5.60;;;18.60;99.90;;;18.85;71.68;95227.56;5122793;27;20456;-56
2022/06/27 02:29:38;;;;;;;13.90;5.43;;;18.50;99.90;;;18.79;72.49;95233.56;5121297;27;20455;-55
2022/06/27 02:32:08;;;;;;;10.20;6.50;;;18.40;99.90;;;18.74;72.69;95231.44;5124773;27;20488;-55
2022/06/27 02:34:36;;;;;;;7.37;5.63;;;18.40;99.90;;;18.71;73.18;95239.81;5125821;27;20525;-54
2022/06/27 02:37:03;;;;;;;9.33;5.97;;;18.40;99.90;;;18.67;73.02;95235.88;5122465;27;20456;-53
2022/06/27 02:39:31;;;;;;;8.20;5.37;;;18.30;99.90;;;18.66;72.71;95244.03;5120688;27;20460;-56
2022/06/27 02:41:59;;;;;;;8.83;5.67;;;18.30;99.90;;;18.61;73.45;95237.41;5123562;27;20545;-55
2022/06/27 02:44:27;;;;;;;10.40;5.97;;;18.30;99.90;;;18.61;73.43;95244.59;5119293;27;20448;-55
2022/06/27 02:46:54;;;;;;;18.70;5.63;;;18.20;99.90;;;18.60;73.45;95245.59;5126010;27;20473;-54
2022/06/27 02:49:23;;;;;;;9.60;5.20;;;18.30;99.90;;;18.62;73.24;95251.56;5126203;27;20450;-56
2022/06/27 02:51:55;;;;;;;9.80;5.90;;;18.20;99.90;;;18.61;72.58;95244.59;5118947;27;20476;-53
2022/06/27 02:54:27;;;;;;;7.60;5.80;;;18.20;99.90;;;18.59;72.43;95250.09;5127865;27;20443;-54
2022/06/27 02:57:01;;;;;;;7.80;5.90;;;18.20;99.90;;;18.59;73.01;95259.91;5122382;27;20782;-54
2022/06/27 02:59:32;;;;;;;5.93;5.43;;;18.20;99.90;;;18.62;73.28;95256.88;5120537;27;20452;-56
2022/06/27 03:01:59;;;;;;;5.90;5.30;;;18.20;99.90;;;18.63;73.57;95255.88;5124474;27;20845;-56
2022/06/27 03:04:28;;;;;;;10.83;6.00;;;18.20;99.90;;;18.67;73.02;95256.34;5118680;27;20464;-56
2022/06/27 03:06:55;;;;;;;10.43;6.67;;;18.30;99.90;;;18.68;73.54;95263.34;5121923;27;20853;-56
2022/06/27 03:09:23;;;;;;;8.67;5.00;;;18.30;99.90;;;18.70;73.52;95258.66;5117884;27;20475;-54
2022/06/27 03:11:50;;;;;;;9.83;6.30;;;18.30;99.90;;;18.73;73.76;95258.28;5121563;27;20472;-55
2022/06/27 03:14:17;;;;;;;10.20;6.20;;;18.30;99.90;;;18.75;73.52;95253.63;5121044;27;20463;-56
2022/06/27 03:16:45;;;;;;;8.27;6.73;;;18.30;99.90;;;18.76;72.98;95256.09;5119457;27;20475;-55
2022/06/27 03:19:13;;;;;;;6.80;6.13;;;18.40;99.90;;;18.73;73.22;95251.13;5122604;27;20561;-53
2022/06/27 03:21:41;;;;;;;8.20;6.77;;;18.40;99.90;;;18.69;73.38;95259.69;5123587;27;20480;-56
2022/06/27 03:24:09;;;;;;;8.90;5.77;;;18.30;99.90;;;18.63;72.89;95259.38;5123112;27;20469;-54
2022/06/27 03:26:36;;;;;;;8.80;5.30;;;18.30;99.90;;;18.60;73.51;95245.59;5123141;27;20476;-54
2022/06/27 03:29:03;;;;;;;8.97;5.03;;;18.30;99.90;;;18.60;73.92;95253.56;5117804;27;20991;-56
2022/06/27 03:31:31;;;;;;;9.13;5.53;;;18.20;99.90;;;18.60;73.58;95257.06;5119351;27;20479;-54
2022/06/27 03:33:58;;;;;;;7.30;4.60;;;18.20;99.90;;;18.58;73.62;95253.75;5118831;27;20483;-56
2022/06/27 03:36:25;;;;;;;10.67;4.30;;;18.20;99.90;;;18.57;73.46;95261.94;5120740;27;21041;-56
2022/06/27 03:38:54;;;;;;;10.70;7.43;;;18.20;99.90;;;18.50;72.78;95261.81;5120274;27;20471;-56
2022/06/27 03:41:22;;;;;;;4.13;3.83;;;18.20;99.90;;;18.45;73.42;95265.03;5120349;27;20931;-54
2022/06/27 03:43:49;;;;;;;5.03;4.63;;;18.10;99.90;;;18.42;73.31;95268.06;5113561;27;20463;-55
2022/06/27 03:46:16;;;;;;;6.27;4.47;;;18.10;99.90;;;18.41;73.59;95270.88;5117293;27;20549;-55
2022/06/27 03:51:29;;;;;;;6.60;3.80;;;18.00;99.90;;;18.44;73.65;95278.53;5114767;27;20794;-54
2022/06/27 03:53:57;;;;;;;3.57;3.27;;;18.10;99.90;;;18.46;73.07;95279.16;5127684;27;20972;-55
2022/06/27 03:56:25;;;;;;;4.47;3.30;;;18.10;99.90;;;18.49;73.42;95268.16;5121795;28;20484;-55
2022/06/27 03:58:52;;;;;;;12.33;3.87;;;18.10;99.90;;;18.54;73.58;95268.44;5119559;28;20444;-54
2022/06/27 04:01:19;;;;;;;4.60;3.90;;;18.20;99.90;;;18.57;73.19;95268.06;5124964;28;20456;-55
2022/06/27 04:03:47;;;;;;;14.70;3.63;;;18.20;99.90;;;18.60;73.19;95275.72;5126296;28;20448;-55
2022/06/27 04:06:14;;;;;;;4.10;3.70;;;18.20;99.90;;;18.66;73.01;95265.38;5126260;28;20482;-54
2022/06/27 04:08:42;;;;;;;6.33;3.77;;;18.30;99.90;;;18.72;72.77;95277.97;5126159;28;20448;-53
2022/06/27 04:11:11;;;;;;;3.40;3.10;;;18.30;99.90;;;18.78;73.03;95272.72;5127099;28;20456;-54
2022/06/27 04:13:38;;;;;;;3.70;3.40;;;18.40;99.90;;;18.84;72.70;95273.84;5117135;28;20499;-53
2022/06/27 04:16:06;;;;;;;6.97;3.63;;;18.40;99.90;;;18.90;72.20;95273.16;5125970;28;20544;-55
2022/06/27 04:18:34;;;;;;;10.10;3.60;;;18.50;99.90;;;18.96;72.24;95272.44;5119410;28;20463;-57
2022/06/27 04:21:01;;;;;;;3.73;3.53;;;18.60;99.90;;;19.03;72.71;95261.03;5125813;28;20472;-55
2022/06/27 04:23:28;;;;;;;7.93;4.10;;;18.60;99.90;;;19.10;72.62;95272.63;5118760;28;20766;-54
2022/06/27 04:25:56;;;;;;;4.97;4.10;;;18.70;99.90;;;19.18;72.53;95267.22;5124307;28;20483;-54
2022/06/27 04:28:24;;;;;;;15.00;4.43;;;18.80;99.90;;;19.28;72.45;95265.09;5121443;28;20805;-56
2022/06/27 04:30:52;;;;;;;10.83;4.50;;;18.90;99.90;;;19.38;72.21;95277.31;5125358;28;20476;-56
2022/06/27 04:33:19;;;;;;;9.00;6.27;;;18.90;99.90;;;19.49;72.05;95272.34;5122046;28;20488;-54
2022/06/27 04:35:47;;;;;;;10.23;4.10;;;19.00;99.90;;;19.62;71.58;95278.88;5126096;28;20546;-55
2022/06/27 04:38:14;;;;;;;7.67;4.60;;;19.20;99.90;;;19.75;71.58;95270.19;5126071;28;20527;-53
2022/06/27 04:40:42;;;;;;;5.90;4.23;;;19.30;99.90;;;19.84;71.18;95274.44;5122514;28;20476;-54
2022/06/27 04:43:10;;;;;;;11.33;4.30;;;19.40;99.90;;;19.96;70.89;95270.28;5117885;28;20826;-56
2022/06/27 04:45:39;;;;;;;21.10;7.57;;;19.50;99.90;;;20.08;70.56;95264.44;5121906;28;20467;-56
2022/06/27 04:48:07;;;;;;;78.57;18.13;;;19.60;99.90;;;20.16;70.28;95275.84;5117968;28;20509;-59
2022/06/27 04:50:36;;;;;;;20.73;6.10;;;19.70;99.90;;;20.24;69.72;95274.88;5118364;28;20479;-56
2022/06/27 04:53:04;;;;;;;4.67;4.37;;;19.80;99.90;;;20.28;69.66;95273.50;5118127;28;20838;-55
2022/06/27 04:55:32;;;;;;;4.77;4.30;;;19.80;99.90;;;20.24;69.88;95272.22;5116126;28;20472;-54
2022/06/27 04:57:59;;;;;;;10.33;4.10;;;19.80;99.90;;;20.19;69.83;95275.44;5115862;28;21006;-55
2022/06/27 05:00:27;;;;;;;6.00;3.97;;;19.80;99.90;;;20.16;69.46;95267.00;5120699;28;20523;-54
2022/06/27 05:02:55;;;;;;;3.60;3.40;;;19.80;99.90;;;20.15;69.61;95266.16;5125249;28;20870;-55
2022/06/27 05:05:23;;;;;;;6.43;5.13;;;19.70;99.90;;;20.17;69.92;95273.97;5126002;28;20456;-54
2022/06/27 05:07:51;;;;;;;4.80;3.90;;;19.80;99.90;;;20.19;69.93;95283.47;5126220;28;20456;-55
2022/06/27 05:10:19;;;;;;;15.53;4.70;;;19.80;99.90;;;20.20;70.01;95284.28;5127606;27;20460;-55
2022/06/27 05:12:46;;;;;;;5.90;4.27;;;19.80;99.90;;;20.21;69.92;95281.41;5127654;27;20491;-55
2022/06/27 05:15:14;;;;;;;5.07;4.67;;;19.80;99.90;;;20.22;70.12;95288.44;5127555;27;21007;-56
2022/06/27 05:17:43;;;;;;;6.83;4.30;;;19.80;99.90;;;20.26;69.74;95283.53;5126766;27;20448;-55
2022/06/27 05:20:12;;;;;;;7.27;4.43;;;19.80;99.90;;;20.35;69.53;95281.56;5128015;27;20459;-56
2022/06/27 05:22:39;;;;;;;6.73;3.93;;;19.90;99.90;;;20.45;69.36;95275.91;5127735;27;20455;-55
2022/06/27 05:25:08;;;;;;;8.23;5.67;;;20.00;99.90;;;20.58;69.60;95276.03;5128085;27;21023;-52
2022/06/27 05:27:35;;;;;;;7.83;5.77;;;20.10;99.90;;;20.72;68.82;95285.84;5127519;27;20476;-55
2022/06/27 05:30:04;;;;;;;5.00;4.50;;;20.20;99.90;;;20.86;68.48;95288.63;5129494;27;20952;-57
2022/06/27 05:32:31;;;;;;;10.10;5.30;;;20.40;99.90;;;21.02;68.23;95288.34;5128806;27;20479;-56
2022/06/27 05:34:59;;;;;;;5.07;4.70;;;20.50;99.90;;;21.20;67.77;95295.88;5129092;27;20464;-55
2022/06/27 05:37:27;;;;;;;8.63;4.87;;;20.70;99.90;;;21.36;67.15;95299.28;5129377;27;20512;-57
2022/06/27 05:39:55;;;;;;;11.13;5.53;;;20.80;99.90;;;21.49;67.13;95300.22;5129281;27;20506;-53
2022/06/27 05:42:22;;;;;;;5.67;5.17;;;20.90;99.90;;;21.66;66.73;95289.19;5129398;27;20455;-52
2022/06/27 05:44:49;;;;;;;5.87;4.50;;;21.10;99.90;;;21.82;65.67;95288.00;5129496;27;20459;-53
2022/06/27 05:47:17;;;;;;;12.87;4.70;;;21.20;99.90;;;22.00;65.58;95295.50;5129357;27;20801;-54
2022/06/27 05:49:45;;;;;;;5.47;5.07;;;21.40;99.90;;;22.16;65.36;95300.50;5125183;27;20879;-54
2022/06/27 05:52:12;;;;;;;5.93;5.20;;;21.60;99.90;;;22.35;65.38;95298.94;5119437;27;20502;-54
2022/06/27 05:54:41;;;;;;;6.10;5.60;;;21.80;99.90;;;22.57;64.97;95296.06;5122418;27;20495;-55
2022/06/27 05:57:09;;;;;;;7.47;5.70;;;21.90;99.90;;;22.76;64.51;95302.50;5124074;27;20456;-56
2022/06/27 05:59:36;;;;;;;8.83;6.13;;;22.10;99.80;;;22.97;63.71;95306.00;5126052;27;20444;-53
2022/06/27 06:02:04;;;;;;;6.67;5.37;;;22.30;99.40;;;23.15;63.69;95306.25;5119227;27;20445;-55
2022/06/27 06:04:32;;;;;;;6.50;4.67;;;22.50;99.10;;;23.34;62.78;95307.25;5124200;27;20883;-55
2022/06/27 06:06:59;;;;;;;7.07;5.27;;;22.70;98.80;;;23.50;62.29;95300.63;5117846;27;20449;-56
2022/06/27 06:09:27;;;;;;;4.63;4.23;;;22.90;98.30;;;23.68;61.81;95301.81;5126754;27;20463;-56
2022/06/27 06:11:56;;;;;;;7.53;5.03;;;23.10;98.10;;;23.86;61.39;95298.47;5120025;27;20480;-55
2022/06/27 06:14:23;;;;;;;5.83;4.90;;;23.20;97.80;;;24.04;60.74;95295.09;5124372;27;20541;-56
2022/06/27 06:16:51;;;;;;;7.77;5.57;;;23.40;97.40;;;24.22;60.02;95297.09;5120160;27;20494;-55
2022/06/27 06:19:18;;;;;;;9.50;6.50;;;23.50;97.00;;;24.40;60.45;95296.34;5127147;27;20444;-54
2022/06/27 06:21:46;;;;;;;7.10;6.17;;;23.70;96.80;;;24.58;59.27;95291.09;5120563;27;20476;-56
2022/06/27 06:24:13;;;;;;;6.50;5.90;;;23.90;96.50;;;24.76;59.02;95298.44;5122156;27;20452;-53
2022/06/27 06:26:41;;;;;;;7.83;6.33;;;24.10;96.20;;;24.95;59.31;95301.19;5122755;27;20918;-54
2022/06/27 06:29:17;;;;;;;8.00;6.80;;;24.30;95.90;;;25.12;59.11;95296.91;5120758;27;20455;-52
2022/06/27 06:31:44;;;;;;;10.97;6.20;;;24.40;95.80;;;25.30;58.14;95301.56;5120521;27;20805;-54
2022/06/27 06:34:11;;;;;;;9.67;7.63;;;24.60;95.50;;;25.46;58.18;95302.03;5121807;27;20491;-56
2022/06/27 06:36:39;;;;;;;9.97;7.10;;;24.80;95.10;;;25.61;57.28;95307.03;5122317;27;20463;-54
2022/06/27 06:39:06;;;;;;;9.97;7.57;;;24.90;94.90;;;25.75;57.01;95303.19;5121308;27;20795;-54
2022/06/27 06:41:34;;;;;;;11.33;6.83;;;25.10;94.70;;;25.91;57.01;95305.25;5123087;27;20471;-56
2022/06/27 06:44:02;;;;;;;8.77;6.70;;;25.20;94.60;;;26.08;57.07;95308.19;5119365;27;20524;-53
2022/06/27 06:46:31;;;;;;;14.50;6.67;;;25.40;94.40;;;26.26;56.55;95312.75;5123814;27;20475;-54
2022/06/27 06:49:02;;;;;;;17.90;8.10;;;25.60;94.20;;;26.44;56.48;95311.88;5124100;27;20539;-56
2022/06/27 06:51:31;;;;;;;12.90;6.17;;;25.70;93.70;;;26.60;55.73;95313.13;5123543;27;20475;-56
2022/06/27 06:53:59;;;;;;;6.67;6.07;;;25.90;93.10;;;26.73;55.38;95314.81;5119842;27;20565;-54
2022/06/27 06:56:28;;;;;;;7.50;6.57;;;26.00;92.90;;;26.87;55.62;95307.34;5119253;27;20995;-56
2022/06/27 06:58:55;;;;;;;15.53;6.17;;;26.20;92.80;;;27.05;54.98;95311.84;5122336;27;20468;-56
2022/06/27 07:01:23;;;;;;;6.93;6.23;;;26.40;92.60;;;27.24;55.13;95327.97;5127226;27;20471;-55
2022/06/27 07:03:52;;;;;;;15.93;5.77;;;26.50;92.40;;;27.45;54.76;95330.13;5126215;27;20489;-54
2022/06/27 07:06:24;;;;;;;15.20;5.20;;;26.70;92.30;;;27.66;53.72;95328.69;5127373;27;20566;-53
2022/06/27 07:08:53;;;;;;;10.00;5.80;;;26.90;91.80;;;27.84;53.62;95322.34;5123748;27;20467;-55
2022/06/27 07:11:22;;;;;;;11.57;5.67;;;27.10;91.40;;;28.00;52.80;95325.41;5123639;27;20998;-54
2022/06/27 07:13:51;;;;;;;7.70;5.57;;;27.30;90.90;;;28.14;52.96;95321.38;5127286;27;20487;-56
2022/06/27 07:16:18;;;;;;;6.20;5.70;;;27.40;90.60;;;28.18;51.91;95319.00;5127653;27;20459;-55
2022/06/27 07:18:46;;;;;;;11.83;4.97;;;27.50;90.00;;;28.18;52.27;95321.69;5125750;27;20456;-55
2022/06/27 07:21:16;;;;;;;6.87;5.60;;;27.50;89.50;;;28.21;51.75;95321.22;5127203;27;20460;-57
2022/06/27 07:23:44;;;;;;;8.20;5.27;;;27.50;88.70;;;28.28;52.40;95323.81;5127699;27;20485;-55
2022/06/27 07:26:12;;;;;;;7.37;5.40;;;27.50;89.00;;;28.39;51.60;95325.63;5127182;27;20475;-56
2022/06/27 07:28:40;;;;;;;11.30;4.87;;;27.60;88.40;;;28.58;51.37;95318.16;5127133;27;20448;-55
2022/06/27 07:31:08;;;;;;;19.13;4.33;;;27.80;88.10;;;28.79;51.31;95328.31;5126337;27;20491;-55
2022/06/27 07:33:38;;;;;;;4.00;3.70;;;28.00;86.90;;;28.91;50.55;95322.03;5121585;27;20479;-54
2022/06/27 07:36:06;;;;;;;7.70;4.27;;;28.20;84.90;;;29.00;49.41;95322.44;5127377;27;20468;-53
2022/06/27 07:38:38;;;;;;;4.00;3.80;;;28.20;82.80;;;29.06;49.30;95321.47;5126874;27;20475;-55
2022/06/27 07:41:05;;;;;;;11.50;3.80;;;28.40;81.30;;;29.14;48.25;95319.19;5127290;27;20554;-57
2022/06/27 07:43:34;;;;;;;6.20;4.80;;;28.40;80.50;;;29.26;48.79;95323.72;5126865;27;20487;-55
2022/06/27 07:46:01;;;;;;;9.20;4.40;;;28.50;79.70;;;29.43;47.55;95319.09;5127024;27;20473;-53
2022/06/27 07:48:28;;;;;;;5.27;4.30;;;28.60;78.60;;;29.59;47.22;95320.16;5126419;27;20451;-55
2022/06/27 07:50:56;;;;;;;6.37;4.40;;;28.80;76.30;;;29.78;46.10;95325.31;5127098;27;20545;-56
2022/06/27 07:53:23;;;;;;;19.17;4.00;;;29.10;75.20;;;29.98;46.37;95312.06;5126874;27;20483;-55
2022/06/27 07:55:54;;;;;;;6.33;4.10;;;29.20;73.90;;;30.18;45.75;95316.09;5127584;27;20848;-55
2022/06/27 07:58:30;;;;;;;7.43;3.60;;;29.40;72.90;;;30.37;45.91;95308.44;5124509;28;20442;-56
2022/06/27 08:00:58;;;;;;;3.60;3.30;;;29.60;72.00;;;30.50;44.98;95309.97;5126971;28;20578;-57
2022/06/27 08:03:39;;;;;;;4.07;3.70;;;29.80;71.20;;;30.63;44.79;95312.28;5122353;28;20206;-55
2022/06/27 08:06:08;;;;;;;4.27;3.90;;;29.90;69.90;;;30.84;44.11;95312.50;5124528;28;20226;-56
2022/06/27 08:08:36;;;;;;;3.63;3.33;;;30.10;69.30;;;30.97;43.95;95312.13;5126530;28;20671;-57
2022/06/27 08:11:06;;;;;;;4.30;3.90;;;30.20;67.70;;;30.95;43.85;95306.06;5126595;28;20222;-54
2022/06/27 08:13:35;;;;;;;4.30;3.90;;;30.30;66.40;;;31.04;43.51;95309.19;5126412;28;20248;-56
2022/06/27 08:16:02;;;;;;;4.60;4.13;;;30.30;66.40;;;31.16;44.00;95309.00;5125251;28;20250;-55
2022/06/27 08:18:31;;;;;;;3.27;3.17;;;30.40;66.50;;;31.19;43.60;95305.78;5117993;28;20206;-55
2022/06/27 08:20:59;;;;;;;6.43;3.73;;;30.50;65.60;;;31.30;43.04;95310.22;5120223;28;20757;-56
2022/06/27 08:23:27;;;;;;;10.37;3.00;;;30.60;64.80;;;31.49;42.57;95318.75;5121373;28;20663;-56
2022/06/27 08:25:54;;;;;;;4.83;3.27;;;30.70;64.10;;;31.61;42.23;95315.91;5126860;28;20294;-55
2022/06/27 08:28:25;;;;;;;4.60;3.30;;;30.80;63.80;;;31.71;42.26;95320.56;5126993;28;20263;-55
2022/06/27 08:30:52;;;;;;;7.63;3.40;;;31.00;62.90;;;31.66;41.29;95317.84;5124615;28;20758;-55
2022/06/27 08:33:21;;;;;;;5.43;3.57;;;31.00;60.60;;;31.51;41.76;95307.63;5123740;28;20214;-53
2022/06/27 08:35:48;;;;;;;8.20;3.97;;;30.90;60.50;;;31.42;41.79;95313.56;5126778;28;20329;-56
2022/06/27 08:38:19;;;;;;;9.40;3.53;;;30.80;60.30;;;31.45;42.27;95312.22;5126751;28;20278;-56
2022/06/27 08:40:47;;;;;;;7.80;4.00;;;30.80;60.90;;;31.64;41.82;95312.66;5125546;28;20245;-56
2022/06/27 08:43:15;;;;;;;8.70;4.00;;;30.90;61.30;;;31.94;41.75;95311.19;5126572;27;20237;-56
2022/06/27 08:45:46;;;;;;;3.90;3.50;;;31.10;60.90;;;32.27;41.07;95304.56;5129761;27;20229;-56
2022/06/27 08:48:14;;;;;;;4.50;3.95;;;31.40;60.50;;;32.60;40.75;95307.13;5130613;27;20201;-56
2022/06/27 08:50:42;;;;;;;4.07;3.58;;;31.80;59.70;;;32.88;39.77;95306.66;5130958;27;20220;-53
2022/06/27 08:53:10;;;;;;;4.63;3.13;;;32.10;58.50;;;32.91;39.21;95299.03;5126531;27;20201;-55
2022/06/27 08:55:37;;;;;;;4.90;3.20;;;32.20;57.40;;;32.99;39.59;95295.75;5121280;27;20344;-56
2022/06/27 08:58:06;;;;;;;6.30;3.72;;;32.20;57.00;;;33.17;38.85;95297.97;5127699;27;20206;-56
2022/06/27 09:00:36;;;;;;;3.95;3.50;;;32.40;56.80;;;33.37;39.05;95297.16;5128363;27;20843;-56
2022/06/27 09:03:06;;;;;;;3.95;3.60;;;32.60;56.30;;;33.32;38.33;95299.88;5128782;27;20620;-53
2022/06/27 09:05:34;;;;;;;4.05;3.67;;;32.60;54.90;;;33.23;38.34;95302.34;5126881;27;20218;-57
2022/06/27 09:08:02;;;;;;;9.27;3.40;;;32.50;55.00;;;33.32;38.49;95299.88;5129732;27;20234;-55
2022/06/27 09:10:32;;;;;;;4.63;2.80;;;32.60;55.00;;;33.50;37.98;95303.97;5130210;27;20241;-57
2022/06/27 09:13:01;;;;;;;11.15;4.38;;;32.70;54.80;;;33.68;37.42;95308.03;5130137;27;20247;-54
2022/06/27 09:15:45;;;;;;;3.42;3.00;;;32.90;54.00;;;33.82;36.78;95308.31;5129715;27;20222;-56
2022/06/27 09:18:15;;;;;;;3.55;3.28;;;33.00;53.20;;;33.78;36.35;95303.69;5126207;27;20194;-57
2022/06/27 09:20:52;;;;;;;3.22;2.97;;;33.10;52.30;;;33.56;36.63;95294.69;5129730;27;20316;-57
2022/06/27 09:23:43;;;;;;;22.27;4.85;;;33.00;52.00;;;33.35;36.66;95290.34;5126999;27;20677;-55
2022/06/27 09:26:16;;;;;;;5.85;3.92;;;32.80;52.00;;;33.45;37.29;95295.78;5122764;27;20230;-55
2022/06/27 09:28:53;;;;;;;54.35;14.60;;;32.80;52.80;;;33.67;37.09;95289.22;5124422;27;20194;-55
2022/06/27 09:31:36;;;;;;;30.65;8.82;;;32.90;53.00;;;33.90;35.81;95290.56;5121936;27;20230;-53
2022/06/27 09:34:12;;;;;;;3.60;3.20;;;33.10;51.90;;;33.99;35.80;95293.50;5128989;27;20369;-55
2022/06/27 09:36:41;;;;;;;2.78;2.58;;;33.30;51.90;;;33.89;36.74;95281.53;5127006;27;20686;-55
2022/06/27 09:39:16;;;;;;;3.88;3.50;;;33.20;51.60;;;33.87;34.10;95289.19;5129293;27;20690;-56
2022/06/27 09:41:45;;;;;;;3.88;3.58;;;33.20;49.10;;;33.87;36.21;95283.72;5129777;27;20564;-57
2022/06/27 09:44:14;;;;;;;3.25;3.05;;;33.20;51.20;;;33.79;36.70;95280.75;5125960;27;20206;-56
2022/06/27 09:46:43;;;;;;;3.75;3.13;;;33.10;51.10;;;33.73;36.61;95294.41;5128973;27;20220;-55
2022/06/27 09:49:14;;;;;;;6.57;3.17;;;33.00;51.20;;;33.51;35.92;95283.78;5128832;27;20293;-57
2022/06/27 09:51:41;;;;;;;2.78;2.65;;;32.90;50.60;;;33.26;35.73;95283.81;5129062;27;20241;-56
2022/06/27 09:54:10;;;;;;;3.60;3.40;;;32.60;50.00;;;33.16;36.55;95282.69;5128821;27;20194;-53
2022/06/27 09:56:41;;;;;;;4.30;3.72;;;32.50;51.00;;;33.24;36.73;95271.25;5128346;27;20622;-55
2022/06/27 09:59:10;;;;;;;3.95;3.05;;;32.50;51.60;;;33.37;36.32;95274.50;5125422;27;20301;-56
2022/06/27 10:01:38;;;;;;;3.47;3.15;;;32.60;51.30;;;33.44;36.64;95274.25;5127989;27;20798;-53
2022/06/27 10:04:06;;;;;;;4.25;3.17;;;32.70;51.00;;;33.32;36.55;95266.34;5128294;27;20576;-57
2022/06/27 10:06:35;;;;;;;5.13;4.43;;;32.60;51.20;;;33.23;37.21;95266.06;5128342;27;20535;-56
2022/06/27 10:09:04;;;;;;;3.50;3.20;;;32.60;51.60;;;33.17;37.23;95273.41;5128660;27;20276;-54
2022/06/27 10:11:31;;;;;;;4.13;3.15;;;32.50;51.90;;;33.16;36.89;95279.94;5128779;27;20714;-57
2022/06/27 10:14:22;;;;;;;3.47;2.72;;;32.50;51.60;;;33.07;35.82;95270.69;5127509;27;20205;-56
2022/06/27 10:16:56;;;;;;;5.55;3.22;;;32.40;50.20;;;33.06;35.91;95258.97;5123198;27;20352;-56
2022/06/27 10:19:25;;;;;;;10.85;3.05;;;32.30;50.70;;;33.05;36.35;95251.06;5124905;27;20202;-53
2022/06/27 10:21:54;;;;;;;6.35;3.60;;;32.40;50.60;;;33.09;36.71;95259.50;5128349;27;20222;-55
2022/06/27 10:24:34;;;;;;;5.13;3.55;;;32.40;51.10;;;33.02;36.36;95260.59;5127616;27;20202;-55
2022/06/27 10:27:06;;;;;;;4.88;3.13;;;32.30;50.90;;;33.03;36.81;95258.69;5124614;27;20626;-56